sensor_id;sensor_type;location;lat;lon;timestamp;temperature;humidity
65421;DHT22;52028;50.658;14.004;2022-08-11T00:01:16;16.36;71.94
65421;DHT22;52028;50.658;14.004;2022-08-11T00:03:49;16.43;70.95
65421;DHT22;52028;50.658;14.004;2022-08-11T00:06:28;16.46;70.50
65421;DHT22;52028;50.658;14.004;2022-08-11T00:08:54;16.47;69.98
65421;DHT22;52028;50.658;14.004;2022-08-11T00:11:21;16.44;71.20
65421;DHT22;52028;50.658;14.004;2022-08-11T00:13:48;16.33;71.71
65421;DHT22;52028;50.658;14.004;2022-08-11T00:16:16;16.30;71.81
65421;DHT22;52028;50.658;14.004;2022-08-11T00:18:44;16.32;71.66
65421;DHT22;52028;50.658;14.004;2022-08-11T00:21:10;16.34;71.10
65421;DHT22;52028;50.658;14.004;2022-08-11T00:23:41;16.22;71.29
65421;DHT22;52028;50.658;14.004;2022-08-11T00:26:08;16.22;71.22
65421;DHT22;52028;50.658;14.004;2022-08-11T00:28:34;16.13;71.58
65421;DHT22;52028;50.658;14.004;2022-08-11T00:31:09;15.98;72.03
65421;DHT22;52028;50.658;14.004;2022-08-11T00:33:41;15.79;72.63
65421;DHT22;52028;50.658;14.004;2022-08-11T00:36:09;15.62;73.01
65421;DHT22;52028;50.658;14.004;2022-08-11T00:38:37;15.70;72.78
65421;DHT22;52028;50.658;14.004;2022-08-11T01:00:03;15.67;71.35
65421;DHT22;52028;50.658;14.004;2022-08-11T01:14:22;15.55;71.96
65421;DHT22;52028;50.658;14.004;2022-08-11T01:25:57;15.51;72.08
65421;DHT22;52028;50.658;14.004;2022-08-11T01:54:03;15.15;72.26
65421;DHT22;52028;50.658;14.004;2022-08-11T01:57:02;15.10;72.32
65421;DHT22;52028;50.658;14.004;2022-08-11T01:59:44;15.05;72.45
65421;DHT22;52028;50.658;14.004;2022-08-11T02:02:29;15.00;72.58
65421;DHT22;52028;50.658;14.004;2022-08-11T02:08:09;14.82;73.08
65421;DHT22;52028;50.658;14.004;2022-08-11T02:10:53;14.74;73.33
65421;DHT22;52028;50.658;14.004;2022-08-11T02:13:50;14.71;73.50
65421;DHT22;52028;50.658;14.004;2022-08-11T02:16:28;14.72;73.68
65421;DHT22;52028;50.658;14.004;2022-08-11T02:19:24;14.67;74.05
65421;DHT22;52028;50.658;14.004;2022-08-11T02:22:22;14.53;74.87
65421;DHT22;52028;50.658;14.004;2022-08-11T02:25:21;14.51;74.84
65421;DHT22;52028;50.658;14.004;2022-08-11T02:28:01;14.53;74.65
65421;DHT22;52028;50.658;14.004;2022-08-11T02:30:30;14.54;74.76
65421;DHT22;52028;50.658;14.004;2022-08-11T02:35:57;14.50;75.05
65421;DHT22;52028;50.658;14.004;2022-08-11T02:38:39;14.59;74.70
65421;DHT22;52028;50.658;14.004;2022-08-11T02:41:15;14.50;74.47
65421;DHT22;52028;50.658;14.004;2022-08-11T02:44:23;14.19;75.55
65421;DHT22;52028;50.658;14.004;2022-08-11T02:47:25;14.18;75.63
65421;DHT22;52028;50.658;14.004;2022-08-11T02:49:55;14.32;75.41
65421;DHT22;52028;50.658;14.004;2022-08-11T02:55:30;14.23;75.35
65421;DHT22;52028;50.658;14.004;2022-08-11T03:01:17;14.02;75.79
65421;DHT22;52028;50.658;14.004;2022-08-11T03:03:53;14.05;75.86
65421;DHT22;52028;50.658;14.004;2022-08-11T03:06:35;13.97;76.10
65421;DHT22;52028;50.658;14.004;2022-08-11T03:09:13;13.99;76.04
65421;DHT22;52028;50.658;14.004;2022-08-11T03:14:55;14.01;75.80
65421;DHT22;52028;50.658;14.004;2022-08-11T03:20:35;13.92;76.13
65421;DHT22;52028;50.658;14.004;2022-08-11T03:26:14;13.91;75.95
65421;DHT22;52028;50.658;14.004;2022-08-11T03:29:19;13.99;75.86
65421;DHT22;52028;50.658;14.004;2022-08-11T03:34:25;13.95;75.97
65421;DHT22;52028;50.658;14.004;2022-08-11T03:43:27;13.86;76.44
65421;DHT22;52028;50.658;14.004;2022-08-11T03:51:20;13.78;76.24
65421;DHT22;52028;50.658;14.004;2022-08-11T03:54:23;13.77;76.35
65421;DHT22;52028;50.658;14.004;2022-08-11T03:57:28;13.75;76.60
65421;DHT22;52028;50.658;14.004;2022-08-11T04:11:45;13.68;76.26
65421;DHT22;52028;50.658;14.004;2022-08-11T04:14:36;13.77;76.14
65421;DHT22;52028;50.658;14.004;2022-08-11T04:18:01;13.68;76.40
65421;DHT22;52028;50.658;14.004;2022-08-11T04:23:55;13.79;76.38
65421;DHT22;52028;50.658;14.004;2022-08-11T04:29:49;13.61;77.29
65421;DHT22;52028;50.658;14.004;2022-08-11T04:49:26;14.04;76.47
65421;DHT22;52028;50.658;14.004;2022-08-11T04:59:00;14.30;75.62
65421;DHT22;52028;50.658;14.004;2022-08-11T05:16:28;15.00;73.75
65421;DHT22;52028;50.658;14.004;2022-08-11T05:19:17;15.03;73.54
65421;DHT22;52028;50.658;14.004;2022-08-11T05:22:02;15.15;73.39
65421;DHT22;52028;50.658;14.004;2022-08-11T05:24:50;15.27;73.03
65421;DHT22;52028;50.658;14.004;2022-08-11T05:27:44;15.40;72.55
65421;DHT22;52028;50.658;14.004;2022-08-11T05:30:35;15.53;72.21
65421;DHT22;52028;50.658;14.004;2022-08-11T05:33:34;15.57;71.96
65421;DHT22;52028;50.658;14.004;2022-08-11T05:36:35;15.70;73.92
65421;DHT22;52028;50.658;14.004;2022-08-11T05:39:14;15.71;73.77
65421;DHT22;52028;50.658;14.004;2022-08-11T05:41:58;15.79;73.77
65421;DHT22;52028;50.658;14.004;2022-08-11T05:44:44;15.89;73.66
65421;DHT22;52028;50.658;14.004;2022-08-11T05:47:30;15.95;73.38
65421;DHT22;52028;50.658;14.004;2022-08-11T05:50:15;15.98;72.89
65421;DHT22;52028;50.658;14.004;2022-08-11T05:53:01;15.91;73.20
65421;DHT22;52028;50.658;14.004;2022-08-11T05:55:47;16.01;73.02
65421;DHT22;52028;50.658;14.004;2022-08-11T05:58:38;16.12;72.41
65421;DHT22;52028;50.658;14.004;2022-08-11T06:01:05;16.23;72.16
65421;DHT22;52028;50.658;14.004;2022-08-11T06:03:32;16.29;71.87
65421;DHT22;52028;50.658;14.004;2022-08-11T06:06:22;16.37;71.58
65421;DHT22;52028;50.658;14.004;2022-08-11T06:08:55;16.43;70.07
65421;DHT22;52028;50.658;14.004;2022-08-11T06:11:21;16.65;69.36
65421;DHT22;52028;50.658;14.004;2022-08-11T06:13:48;16.82;68.00
65421;DHT22;52028;50.658;14.004;2022-08-11T06:16:21;16.94;67.78
65421;DHT22;52028;50.658;14.004;2022-08-11T06:18:47;17.12;67.37
65421;DHT22;52028;50.658;14.004;2022-08-11T06:21:13;17.26;66.94
65421;DHT22;52028;50.658;14.004;2022-08-11T06:23:41;17.39;66.07
65421;DHT22;52028;50.658;14.004;2022-08-11T06:26:08;17.48;65.59
65421;DHT22;52028;50.658;14.004;2022-08-11T06:28:36;17.60;65.35
65421;DHT22;52028;50.658;14.004;2022-08-11T06:31:13;17.79;64.54
65421;DHT22;52028;50.658;14.004;2022-08-11T06:41:47;18.25;63.29
65421;DHT22;52028;50.658;14.004;2022-08-11T06:44:14;18.32;62.97
65421;DHT22;52028;50.658;14.004;2022-08-11T06:46:50;18.50;62.51
65421;DHT22;52028;50.658;14.004;2022-08-11T06:49:19;18.62;62.08
65421;DHT22;52028;50.658;14.004;2022-08-11T06:52:07;18.87;61.57
65421;DHT22;52028;50.658;14.004;2022-08-11T06:54:39;19.05;61.10
65421;DHT22;52028;50.658;14.004;2022-08-11T06:57:09;19.22;59.81
65421;DHT22;52028;50.658;14.004;2022-08-11T06:59:55;19.40;58.96
65421;DHT22;52028;50.658;14.004;2022-08-11T07:02:57;19.55;58.61
65421;DHT22;52028;50.658;14.004;2022-08-11T07:05:38;19.69;57.65
65421;DHT22;52028;50.658;14.004;2022-08-11T07:14:12;20.16;55.80
65421;DHT22;52028;50.658;14.004;2022-08-11T07:17:01;20.33;55.54
65421;DHT22;52028;50.658;14.004;2022-08-11T07:19:28;20.54;55.15
65421;DHT22;52028;50.658;14.004;2022-08-11T07:22:14;20.68;54.30
65421;DHT22;52028;50.658;14.004;2022-08-11T07:25:02;20.84;53.25
65421;DHT22;52028;50.658;14.004;2022-08-11T07:27:59;21.02;52.72
65421;DHT22;52028;50.658;14.004;2022-08-11T07:30:44;21.16;51.90
65421;DHT22;52028;50.658;14.004;2022-08-11T07:33:12;21.23;51.56
65421;DHT22;52028;50.658;14.004;2022-08-11T07:35:47;21.36;51.71
65421;DHT22;52028;50.658;14.004;2022-08-11T07:38:18;21.47;51.24
65421;DHT22;52028;50.658;14.004;2022-08-11T07:40:45;21.64;51.05
65421;DHT22;52028;50.658;14.004;2022-08-11T07:43:12;21.79;49.81
65421;DHT22;52028;50.658;14.004;2022-08-11T07:45:45;22.02;49.36
65421;DHT22;52028;50.658;14.004;2022-08-11T07:48:29;22.16;48.63
65421;DHT22;52028;50.658;14.004;2022-08-11T07:51:18;22.33;47.87
65421;DHT22;52028;50.658;14.004;2022-08-11T07:54:04;22.41;47.65
65421;DHT22;52028;50.658;14.004;2022-08-11T07:56:33;22.47;47.50
65421;DHT22;52028;50.658;14.004;2022-08-11T07:58:59;22.60;46.53
65421;DHT22;52028;50.658;14.004;2022-08-11T08:01:43;22.71;45.53
65421;DHT22;52028;50.658;14.004;2022-08-11T08:04:28;22.75;45.77
65421;DHT22;52028;50.658;14.004;2022-08-11T08:07:12;22.87;45.53
65421;DHT22;52028;50.658;14.004;2022-08-11T08:09:56;22.96;45.46
65421;DHT22;52028;50.658;14.004;2022-08-11T08:12:40;23.13;45.36
65421;DHT22;52028;50.658;14.004;2022-08-11T08:15:25;23.27;44.90
65421;DHT22;52028;50.658;14.004;2022-08-11T08:18:10;23.50;43.82
65421;DHT22;52028;50.658;14.004;2022-08-11T08:20:46;23.88;42.12
65421;DHT22;52028;50.658;14.004;2022-08-11T08:23:14;24.30;41.45
65421;DHT22;52028;50.658;14.004;2022-08-11T08:25:41;24.65;40.40
65421;DHT22;52028;50.658;14.004;2022-08-11T08:28:14;24.85;39.91
65421;DHT22;52028;50.658;14.004;2022-08-11T08:30:40;25.00;40.07
65421;DHT22;52028;50.658;14.004;2022-08-11T08:33:24;25.30;38.92
65421;DHT22;52028;50.658;14.004;2022-08-11T08:35:53;25.37;39.30
65421;DHT22;52028;50.658;14.004;2022-08-11T08:38:39;25.40;39.13
65421;DHT22;52028;50.658;14.004;2022-08-11T08:41:05;25.36;38.24
65421;DHT22;52028;50.658;14.004;2022-08-11T08:43:32;25.61;38.25
65421;DHT22;52028;50.658;14.004;2022-08-11T08:45:59;25.70;38.41
65421;DHT22;52028;50.658;14.004;2022-08-11T08:48:27;25.65;38.33
65421;DHT22;52028;50.658;14.004;2022-08-11T08:50:56;25.45;38.13
65421;DHT22;52028;50.658;14.004;2022-08-11T08:53:48;25.57;38.40
65421;DHT22;52028;50.658;14.004;2022-08-11T08:56:15;25.55;37.80
65421;DHT22;52028;50.658;14.004;2022-08-11T08:58:41;25.51;37.98
65421;DHT22;52028;50.658;14.004;2022-08-11T09:01:09;25.71;38.08
65421;DHT22;52028;50.658;14.004;2022-08-11T09:03:36;25.85;37.38
65421;DHT22;52028;50.658;14.004;2022-08-11T09:06:03;25.79;37.26
65421;DHT22;52028;50.658;14.004;2022-08-11T09:08:30;25.89;37.67
65421;DHT22;52028;50.658;14.004;2022-08-11T09:10:57;26.07;37.02
65421;DHT22;52028;50.658;14.004;2022-08-11T09:13:42;26.13;36.97
65421;DHT22;52028;50.658;14.004;2022-08-11T09:16:10;26.36;36.61
65421;DHT22;52028;50.658;14.004;2022-08-11T09:18:36;26.47;36.00
65421;DHT22;52028;50.658;14.004;2022-08-11T09:21:02;26.55;36.22
65421;DHT22;52028;50.658;14.004;2022-08-11T09:23:28;26.75;36.23
65421;DHT22;52028;50.658;14.004;2022-08-11T09:26:24;26.86;36.30
65421;DHT22;52028;50.658;14.004;2022-08-11T09:29:09;26.62;36.44
65421;DHT22;52028;50.658;14.004;2022-08-11T09:31:36;26.45;36.11
65421;DHT22;52028;50.658;14.004;2022-08-11T09:34:02;26.12;36.52
65421;DHT22;52028;50.658;14.004;2022-08-11T09:36:27;26.17;36.55
65421;DHT22;52028;50.658;14.004;2022-08-11T09:39:13;26.41;35.64
65421;DHT22;52028;50.658;14.004;2022-08-11T09:42:02;26.91;35.66
65421;DHT22;52028;50.658;14.004;2022-08-11T09:44:32;27.31;31.63
65421;DHT22;52028;50.658;14.004;2022-08-11T09:47:28;27.75;31.18
65421;DHT22;52028;50.658;14.004;2022-08-11T09:49:56;27.91;30.94
65421;DHT22;52028;50.658;14.004;2022-08-11T09:52:24;27.51;31.61
65421;DHT22;52028;50.658;14.004;2022-08-11T09:54:51;27.55;32.12
65421;DHT22;52028;50.658;14.004;2022-08-11T09:57:19;27.62;31.93
65421;DHT22;52028;50.658;14.004;2022-08-11T10:00:09;27.71;30.42
65421;DHT22;52028;50.658;14.004;2022-08-11T10:02:41;27.92;29.63
65421;DHT22;52028;50.658;14.004;2022-08-11T10:05:08;27.98;28.92
65421;DHT22;52028;50.658;14.004;2022-08-11T10:07:52;27.88;29.36
65421;DHT22;52028;50.658;14.004;2022-08-11T10:10:19;28.13;30.06
65421;DHT22;52028;50.658;14.004;2022-08-11T10:12:51;28.36;29.38
65421;DHT22;52028;50.658;14.004;2022-08-11T10:15:20;28.44;28.64
65421;DHT22;52028;50.658;14.004;2022-08-11T10:18:15;28.33;26.55
65421;DHT22;52028;50.658;14.004;2022-08-11T10:21:13;28.54;26.97
65421;DHT22;52028;50.658;14.004;2022-08-11T10:23:39;28.53;27.37
65421;DHT22;52028;50.658;14.004;2022-08-11T10:26:26;28.55;27.53
65421;DHT22;52028;50.658;14.004;2022-08-11T10:29:11;28.68;28.15
65421;DHT22;52028;50.658;14.004;2022-08-11T10:31:57;28.76;27.01
65421;DHT22;52028;50.658;14.004;2022-08-11T10:34:43;28.99;27.73
65421;DHT22;52028;50.658;14.004;2022-08-11T10:37:10;29.02;27.42
65421;DHT22;52028;50.658;14.004;2022-08-11T10:39:38;29.06;27.38
65421;DHT22;52028;50.658;14.004;2022-08-11T10:42:04;29.16;26.70
65421;DHT22;52028;50.658;14.004;2022-08-11T10:44:53;29.29;26.46
65421;DHT22;52028;50.658;14.004;2022-08-11T10:47:20;29.47;26.66
65421;DHT22;52028;50.658;14.004;2022-08-11T10:49:58;29.47;26.46
65421;DHT22;52028;50.658;14.004;2022-08-11T10:52:46;29.70;26.30
65421;DHT22;52028;50.658;14.004;2022-08-11T10:55:32;29.54;25.03
65421;DHT22;52028;50.658;14.004;2022-08-11T10:58:17;29.67;25.65
65421;DHT22;52028;50.658;14.004;2022-08-11T11:01:05;29.70;25.38
65421;DHT22;52028;50.658;14.004;2022-08-11T11:03:31;29.65;25.71
65421;DHT22;52028;50.658;14.004;2022-08-11T11:06:07;29.71;25.60
65421;DHT22;52028;50.658;14.004;2022-08-11T11:08:37;29.88;25.86
65421;DHT22;52028;50.658;14.004;2022-08-11T11:11:20;29.84;24.52
65421;DHT22;52028;50.658;14.004;2022-08-11T11:13:49;30.02;24.24
65421;DHT22;52028;50.658;14.004;2022-08-11T11:16:38;30.40;24.34
65421;DHT22;52028;50.658;14.004;2022-08-11T11:19:24;30.22;25.09
65421;DHT22;52028;50.658;14.004;2022-08-11T11:21:56;30.08;25.60
65421;DHT22;52028;50.658;14.004;2022-08-11T11:24:59;30.19;24.93
65421;DHT22;52028;50.658;14.004;2022-08-11T11:30:12;30.60;24.83
65421;DHT22;52028;50.658;14.004;2022-08-11T11:33:26;30.92;23.25
65421;DHT22;52028;50.658;14.004;2022-08-11T11:36:11;31.08;23.41
65421;DHT22;52028;50.658;14.004;2022-08-11T11:38:40;31.03;22.70
65421;DHT22;52028;50.658;14.004;2022-08-11T11:41:06;31.89;23.36
65421;DHT22;52028;50.658;14.004;2022-08-11T11:43:53;32.49;22.71
65421;DHT22;52028;50.658;14.004;2022-08-11T11:46:20;32.92;21.82
65421;DHT22;52028;50.658;14.004;2022-08-11T11:48:46;34.16;20.54
65421;DHT22;52028;50.658;14.004;2022-08-11T11:51:12;34.53;19.58
65421;DHT22;52028;50.658;14.004;2022-08-11T11:53:44;34.74;19.74
65421;DHT22;52028;50.658;14.004;2022-08-11T11:56:11;35.25;19.09
65421;DHT22;52028;50.658;14.004;2022-08-11T11:58:38;35.54;19.06
65421;DHT22;52028;50.658;14.004;2022-08-11T12:01:23;35.07;19.67
65421;DHT22;52028;50.658;14.004;2022-08-11T12:03:51;33.87;19.78
65421;DHT22;52028;50.658;14.004;2022-08-11T12:06:20;35.16;19.56
65421;DHT22;52028;50.658;14.004;2022-08-11T12:08:47;35.21;19.06
65421;DHT22;52028;50.658;14.004;2022-08-11T12:11:14;36.40;18.62
65421;DHT22;52028;50.658;14.004;2022-08-11T12:14:02;37.38;17.63
65421;DHT22;52028;50.658;14.004;2022-08-11T12:16:29;35.64;18.14
65421;DHT22;52028;50.658;14.004;2022-08-11T12:18:57;36.84;18.15
65421;DHT22;52028;50.658;14.004;2022-08-11T12:21:24;38.28;17.24
65421;DHT22;52028;50.658;14.004;2022-08-11T12:23:51;38.04;17.32
65421;DHT22;52028;50.658;14.004;2022-08-11T12:26:37;36.42;18.57
65421;DHT22;52028;50.658;14.004;2022-08-11T12:29:22;36.04;18.77
65421;DHT22;52028;50.658;14.004;2022-08-11T12:31:52;37.24;18.25
65421;DHT22;52028;50.658;14.004;2022-08-11T12:34:18;38.58;16.66
65421;DHT22;52028;50.658;14.004;2022-08-11T12:36:55;37.69;17.54
65421;DHT22;52028;50.658;14.004;2022-08-11T12:39:23;37.97;17.26
65421;DHT22;52028;50.658;14.004;2022-08-11T12:42:13;38.24;17.82
65421;DHT22;52028;50.658;14.004;2022-08-11T12:45:01;39.54;16.39
65421;DHT22;52028;50.658;14.004;2022-08-11T12:47:49;40.40;15.95
65421;DHT22;52028;50.658;14.004;2022-08-11T12:50:34;40.82;15.11
65421;DHT22;52028;50.658;14.004;2022-08-11T12:53:28;39.39;16.08
65421;DHT22;52028;50.658;14.004;2022-08-11T12:55:58;40.48;16.12
65421;DHT22;52028;50.658;14.004;2022-08-11T12:58:47;38.07;17.53
65421;DHT22;52028;50.658;14.004;2022-08-11T13:01:14;39.69;16.57
65421;DHT22;52028;50.658;14.004;2022-08-11T13:03:58;37.98;17.52
65421;DHT22;52028;50.658;14.004;2022-08-11T13:06:41;40.58;16.11
65421;DHT22;52028;50.658;14.004;2022-08-11T13:09:08;40.52;16.04
65421;DHT22;52028;50.658;14.004;2022-08-11T13:11:35;40.34;15.89
65421;DHT22;52028;50.658;14.004;2022-08-11T13:14:19;40.83;15.60
65421;DHT22;52028;50.658;14.004;2022-08-11T13:16:46;41.59;15.26
65421;DHT22;52028;50.658;14.004;2022-08-11T13:19:31;41.94;15.05
65421;DHT22;52028;50.658;14.004;2022-08-11T13:21:58;41.82;15.09
65421;DHT22;52028;50.658;14.004;2022-08-11T13:24:25;41.31;15.26
65421;DHT22;52028;50.658;14.004;2022-08-11T13:26:52;41.92;15.10
65421;DHT22;52028;50.658;14.004;2022-08-11T13:29:26;42.15;14.99
65421;DHT22;52028;50.658;14.004;2022-08-11T13:31:54;42.36;14.86
65421;DHT22;52028;50.658;14.004;2022-08-11T13:34:22;42.10;15.05
65421;DHT22;52028;50.658;14.004;2022-08-11T13:36:50;42.03;14.93
65421;DHT22;52028;50.658;14.004;2022-08-11T13:39:16;42.54;14.74
65421;DHT22;52028;50.658;14.004;2022-08-11T13:41:42;43.09;14.56
65421;DHT22;52028;50.658;14.004;2022-08-11T13:44:10;43.09;14.44
65421;DHT22;52028;50.658;14.004;2022-08-11T13:46:38;42.80;14.79
65421;DHT22;52028;50.658;14.004;2022-08-11T13:49:05;43.58;14.31
65421;DHT22;52028;50.658;14.004;2022-08-11T13:51:33;41.49;15.36
65421;DHT22;52028;50.658;14.004;2022-08-11T13:56:30;43.02;14.92
65421;DHT22;52028;50.658;14.004;2022-08-11T13:58:56;42.56;15.02
65421;DHT22;52028;50.658;14.004;2022-08-11T14:01:27;43.45;14.73
65421;DHT22;52028;50.658;14.004;2022-08-11T14:03:53;43.23;14.72
65421;DHT22;52028;50.658;14.004;2022-08-11T14:06:21;42.10;15.45
65421;DHT22;52028;50.658;14.004;2022-08-11T14:08:46;40.38;16.43
65421;DHT22;52028;50.658;14.004;2022-08-11T14:11:15;40.34;16.43
65421;DHT22;52028;50.658;14.004;2022-08-11T14:14:01;38.35;17.76
65421;DHT22;52028;50.658;14.004;2022-08-11T14:16:32;37.47;18.52
65421;DHT22;52028;50.658;14.004;2022-08-11T14:19:04;37.34;18.96
65421;DHT22;52028;50.658;14.004;2022-08-11T14:21:35;39.92;16.90
65421;DHT22;52028;50.658;14.004;2022-08-11T14:24:20;41.19;15.86
65421;DHT22;52028;50.658;14.004;2022-08-11T14:26:47;41.61;15.64
65421;DHT22;52028;50.658;14.004;2022-08-11T14:29:15;42.07;15.60
65421;DHT22;52028;50.658;14.004;2022-08-11T14:31:50;42.17;15.57
65421;DHT22;52028;50.658;14.004;2022-08-11T14:34:18;41.96;15.38
65421;DHT22;52028;50.658;14.004;2022-08-11T14:36:48;41.81;15.52
65421;DHT22;52028;50.658;14.004;2022-08-11T14:39:18;42.89;14.86
65421;DHT22;52028;50.658;14.004;2022-08-11T14:41:53;41.82;15.35
65421;DHT22;52028;50.658;14.004;2022-08-11T14:44:47;40.72;16.25
65421;DHT22;52028;50.658;14.004;2022-08-11T14:47:30;38.13;18.12
65421;DHT22;52028;50.658;14.004;2022-08-11T14:49:56;37.80;18.40
65421;DHT22;52028;50.658;14.004;2022-08-11T14:52:23;34.98;20.63
65421;DHT22;52028;50.658;14.004;2022-08-11T14:54:51;34.63;20.80
65421;DHT22;52028;50.658;14.004;2022-08-11T14:57:37;36.46;19.73
65421;DHT22;52028;50.658;14.004;2022-08-11T15:00:08;38.53;17.84
65421;DHT22;52028;50.658;14.004;2022-08-11T15:02:38;39.94;17.09
65421;DHT22;52028;50.658;14.004;2022-08-11T15:05:23;41.54;15.79
65421;DHT22;52028;50.658;14.004;2022-08-11T15:07:50;40.83;16.65
65421;DHT22;52028;50.658;14.004;2022-08-11T15:10:17;40.78;16.60
65421;DHT22;52028;50.658;14.004;2022-08-11T15:12:44;40.93;16.67
65421;DHT22;52028;50.658;14.004;2022-08-11T15:15:11;41.23;16.39
65421;DHT22;52028;50.658;14.004;2022-08-11T15:17:57;41.57;16.12
65421;DHT22;52028;50.658;14.004;2022-08-11T15:20:25;41.44;15.94
65421;DHT22;52028;50.658;14.004;2022-08-11T15:23:10;40.68;16.51
65421;DHT22;52028;50.658;14.004;2022-08-11T15:26:00;37.45;18.99
65421;DHT22;52028;50.658;14.004;2022-08-11T15:28:30;35.70;20.62
65421;DHT22;52028;50.658;14.004;2022-08-11T15:31:16;36.42;20.25
65421;DHT22;52028;50.658;14.004;2022-08-11T15:34:11;37.08;19.54
65421;DHT22;52028;50.658;14.004;2022-08-11T15:36:58;35.21;21.44
65421;DHT22;52028;50.658;14.004;2022-08-11T15:39:51;36.02;20.57
65421;DHT22;52028;50.658;14.004;2022-08-11T15:42:48;38.11;18.89
65421;DHT22;52028;50.658;14.004;2022-08-11T15:45:36;38.69;18.03
65421;DHT22;52028;50.658;14.004;2022-08-11T15:48:17;39.22;17.83
65421;DHT22;52028;50.658;14.004;2022-08-11T15:50:47;40.14;17.17
65421;DHT22;52028;50.658;14.004;2022-08-11T15:53:24;40.20;17.14
65421;DHT22;52028;50.658;14.004;2022-08-11T15:55:52;38.79;18.22
65421;DHT22;52028;50.658;14.004;2022-08-11T15:58:18;39.32;17.66
65421;DHT22;52028;50.658;14.004;2022-08-11T16:01:04;38.97;17.90
65421;DHT22;52028;50.658;14.004;2022-08-11T16:03:53;40.07;17.05
65421;DHT22;52028;50.658;14.004;2022-08-11T16:06:49;39.11;17.67
65421;DHT22;52028;50.658;14.004;2022-08-11T16:09:19;38.99;17.74
65421;DHT22;52028;50.658;14.004;2022-08-11T16:11:45;37.31;19.19
65421;DHT22;52028;50.658;14.004;2022-08-11T16:14:13;36.66;19.59
65421;DHT22;52028;50.658;14.004;2022-08-11T16:17:00;35.91;20.21
65421;DHT22;52028;50.658;14.004;2022-08-11T16:19:27;34.54;21.95
65421;DHT22;52028;50.658;14.004;2022-08-11T16:21:59;33.70;22.67
65421;DHT22;52028;50.658;14.004;2022-08-11T16:24:24;33.36;23.03
65421;DHT22;52028;50.658;14.004;2022-08-11T16:26:51;33.60;22.52
65421;DHT22;52028;50.658;14.004;2022-08-11T16:29:20;32.64;23.59
65421;DHT22;52028;50.658;14.004;2022-08-11T16:31:48;32.33;23.96
65421;DHT22;52028;50.658;14.004;2022-08-11T16:34:35;31.60;24.74
65421;DHT22;52028;50.658;14.004;2022-08-11T16:37:22;31.11;24.73
65421;DHT22;52028;50.658;14.004;2022-08-11T16:40:06;30.65;25.34
65421;DHT22;52028;50.658;14.004;2022-08-11T16:42:33;30.57;25.18
65421;DHT22;52028;50.658;14.004;2022-08-11T16:45:18;31.18;24.78
65421;DHT22;52028;50.658;14.004;2022-08-11T16:48:02;32.54;23.01
65421;DHT22;52028;50.658;14.004;2022-08-11T16:50:28;33.04;22.50
65421;DHT22;52028;50.658;14.004;2022-08-11T16:52:54;32.25;23.09
65421;DHT22;52028;50.658;14.004;2022-08-11T16:55:20;30.50;25.02
65421;DHT22;52028;50.658;14.004;2022-08-11T16:57:46;30.23;25.36
65421;DHT22;52028;50.658;14.004;2022-08-11T17:00:31;30.02;25.75
65421;DHT22;52028;50.658;14.004;2022-08-11T17:02:59;29.77;25.97
65421;DHT22;52028;50.658;14.004;2022-08-11T17:05:50;29.46;26.10
65421;DHT22;52028;50.658;14.004;2022-08-11T17:08:47;29.09;26.48
65421;DHT22;52028;50.658;14.004;2022-08-11T17:11:41;28.76;26.83
65421;DHT22;52028;50.658;14.004;2022-08-11T17:14:32;28.63;26.62
65421;DHT22;52028;50.658;14.004;2022-08-11T17:17:02;28.33;27.10
65421;DHT22;52028;50.658;14.004;2022-08-11T17:19:31;28.27;27.06
65421;DHT22;52028;50.658;14.004;2022-08-11T17:22:00;28.09;27.50
65421;DHT22;52028;50.658;14.004;2022-08-11T17:24:49;28.10;27.59
65421;DHT22;52028;50.658;14.004;2022-08-11T17:27:17;27.93;27.92
65421;DHT22;52028;50.658;14.004;2022-08-11T17:29:52;27.77;28.45
65421;DHT22;52028;50.658;14.004;2022-08-11T17:32:22;27.67;28.17
65421;DHT22;52028;50.658;14.004;2022-08-11T17:35:10;27.64;28.35
65421;DHT22;52028;50.658;14.004;2022-08-11T17:38:06;27.58;28.51
65421;DHT22;52028;50.658;14.004;2022-08-11T17:40:35;27.43;28.94
65421;DHT22;52028;50.658;14.004;2022-08-11T17:43:03;27.29;29.00
65421;DHT22;52028;50.658;14.004;2022-08-11T17:45:49;27.24;29.02
65421;DHT22;52028;50.658;14.004;2022-08-11T17:48:36;27.16;29.53
65421;DHT22;52028;50.658;14.004;2022-08-11T17:51:05;27.12;29.38
65421;DHT22;52028;50.658;14.004;2022-08-11T17:53:36;27.00;29.77
65421;DHT22;52028;50.658;14.004;2022-08-11T17:56:21;26.91;29.93
65421;DHT22;52028;50.658;14.004;2022-08-11T17:59:07;26.77;30.17
65421;DHT22;52028;50.658;14.004;2022-08-11T18:01:53;26.71;30.24
65421;DHT22;52028;50.658;14.004;2022-08-11T18:04:21;26.60;30.51
65421;DHT22;52028;50.658;14.004;2022-08-11T18:06:48;26.44;30.66
65421;DHT22;52028;50.658;14.004;2022-08-11T18:09:16;26.34;30.99
65421;DHT22;52028;50.658;14.004;2022-08-11T18:12:03;26.20;31.26
65421;DHT22;52028;50.658;14.004;2022-08-11T18:14:50;26.00;31.36
65421;DHT22;52028;50.658;14.004;2022-08-11T18:17:34;25.81;31.56
65421;DHT22;52028;50.658;14.004;2022-08-11T18:20:19;25.71;31.77
65421;DHT22;52028;50.658;14.004;2022-08-11T18:23:07;25.65;31.88
65421;DHT22;52028;50.658;14.004;2022-08-11T18:25:53;25.57;31.97
65421;DHT22;52028;50.658;14.004;2022-08-11T18:28:45;25.44;32.23
65421;DHT22;52028;50.658;14.004;2022-08-11T18:31:32;25.37;32.71
65421;DHT22;52028;50.658;14.004;2022-08-11T18:34:23;25.27;32.83
65421;DHT22;52028;50.658;14.004;2022-08-11T18:37:12;25.10;33.17
65421;DHT22;52028;50.658;14.004;2022-08-11T18:39:57;24.99;33.31
65421;DHT22;52028;50.658;14.004;2022-08-11T18:42:43;24.79;33.78
65421;DHT22;52028;50.658;14.004;2022-08-11T18:45:31;24.71;33.84
65421;DHT22;52028;50.658;14.004;2022-08-11T18:48:20;24.67;33.94
65421;DHT22;52028;50.658;14.004;2022-08-11T18:51:05;24.61;34.04
65421;DHT22;52028;50.658;14.004;2022-08-11T18:53:55;24.56;34.32
65421;DHT22;52028;50.658;14.004;2022-08-11T18:56:41;24.44;34.74
65421;DHT22;52028;50.658;14.004;2022-08-11T18:59:27;24.29;35.08
65421;DHT22;52028;50.658;14.004;2022-08-11T19:02:13;24.24;35.14
65421;DHT22;52028;50.658;14.004;2022-08-11T19:04:58;24.10;35.59
65421;DHT22;52028;50.658;14.004;2022-08-11T19:07:47;24.02;35.43
65421;DHT22;52028;50.658;14.004;2022-08-11T19:10:33;24.02;35.66
65421;DHT22;52028;50.658;14.004;2022-08-11T19:13:19;23.92;35.87
65421;DHT22;52028;50.658;14.004;2022-08-11T19:16:04;23.81;36.47